createdAt,value
2022-10-30T00:01:54.265Z,12.32
2022-10-30T00:04:24.182Z,12.30
2022-10-30T00:06:52.569Z,12.26
2022-10-30T00:09:21.038Z,12.35
2022-10-30T00:11:51.167Z,12.24
2022-10-30T00:14:23.277Z,12.18
2022-10-30T00:16:52.100Z,12.15
2022-10-30T00:19:21.038Z,12.10
2022-10-30T00:21:49.706Z,12.07
2022-10-30T00:24:19.546Z,12.02
2022-10-30T00:26:49.903Z,12.01
2022-10-30T00:29:20.277Z,12.03
2022-10-30T00:31:48.615Z,12.07
2022-10-30T00:34:17.408Z,12.07
2022-10-30T00:36:45.879Z,12.08
2022-10-30T00:39:16.688Z,12.07
2022-10-30T00:41:46.725Z,12.07
2022-10-30T00:44:37.931Z,12.08
2022-10-30T00:47:12.541Z,12.17
2022-10-30T00:49:51.739Z,12.15
2022-10-30T00:52:22.669Z,12.19
2022-10-30T00:54:52.258Z,12.23
2022-10-30T00:57:21.800Z,12.20
2022-10-30T00:59:51.344Z,12.15
2022-10-30T01:02:22.538Z,12.12
2022-10-30T01:04:53.950Z,12.10
2022-10-30T01:07:22.998Z,12.11
2022-10-30T01:09:52.013Z,12.07
2022-10-30T01:12:20.727Z,12.04
2022-10-30T01:14:54.375Z,11.99
2022-10-30T01:17:49.543Z,11.97
2022-10-30T01:20:32.177Z,11.94
2022-10-30T01:23:14.477Z,11.91
2022-10-30T01:25:57.945Z,11.89
2022-10-30T01:28:44.149Z,11.87
2022-10-30T01:31:41.171Z,11.84
2022-10-30T01:34:19.220Z,11.81
2022-10-30T01:36:56.056Z,11.81
2022-10-30T01:39:28.183Z,11.79
2022-10-30T01:41:56.777Z,11.79
2022-10-30T01:44:31.476Z,11.77
2022-10-30T01:47:14.064Z,11.75
2022-10-30T01:50:08.589Z,11.76
2022-10-30T01:52:43.487Z,11.75
2022-10-30T01:55:21.878Z,11.77
2022-10-30T01:57:59.748Z,11.77
2022-10-30T02:00:28.802Z,11.78
2022-10-30T02:02:59.538Z,11.80
2022-10-30T02:05:37.623Z,11.80
2022-10-30T02:08:06.477Z,11.83
2022-10-30T02:10:38.999Z,11.84
2022-10-30T02:13:07.634Z,11.84
2022-10-30T02:15:36.932Z,11.86
2022-10-30T02:18:07.117Z,11.86
2022-10-30T02:20:37.141Z,11.80
2022-10-30T02:23:06.960Z,11.76
2022-10-30T02:25:36.710Z,11.72
2022-10-30T02:28:05.284Z,11.70
2022-10-30T02:30:38.270Z,11.66
2022-10-30T02:33:07.018Z,11.67
2022-10-30T02:35:37.802Z,11.70
2022-10-30T02:38:05.833Z,11.76
2022-10-30T02:40:35.849Z,11.79
2022-10-30T02:43:06.118Z,11.81
2022-10-30T02:45:34.531Z,11.83
2022-10-30T02:48:03.821Z,11.81
2022-10-30T02:50:33.699Z,11.86
2022-10-30T02:53:03.351Z,11.89
2022-10-30T02:55:31.813Z,11.90
2022-10-30T02:58:00.722Z,11.86
2022-10-30T03:00:29.144Z,11.86
2022-10-30T03:02:58.164Z,11.87
2022-10-30T03:05:27.457Z,11.88
2022-10-30T03:07:56.533Z,11.86
2022-10-30T03:10:26.782Z,11.85
2022-10-30T03:12:56.430Z,11.83
2022-10-30T03:15:24.933Z,11.86
2022-10-30T03:17:53.512Z,11.89
2022-10-30T03:20:21.818Z,11.88
2022-10-30T03:22:53.194Z,11.85
2022-10-30T03:25:23.972Z,11.82
2022-10-30T03:27:58.473Z,11.81
2022-10-30T03:30:27.436Z,11.78
2022-10-30T03:32:56.109Z,11.77
2022-10-30T03:35:24.955Z,11.80
2022-10-30T03:37:54.679Z,11.81
2022-10-30T03:40:23.249Z,11.80
2022-10-30T03:42:53.805Z,11.80
2022-10-30T03:45:25.563Z,11.77
2022-10-30T03:47:53.921Z,11.69
2022-10-30T03:50:22.179Z,11.63
2022-10-30T03:52:50.457Z,11.57
2022-10-30T03:55:18.705Z,11.54
2022-10-30T03:57:47.105Z,11.54
2022-10-30T04:00:19.415Z,11.51
2022-10-30T04:03:00.003Z,11.49
2022-10-30T04:05:31.087Z,11.47
2022-10-30T04:08:01.298Z,11.41
2022-10-30T04:10:32.838Z,11.35
2022-10-30T04:13:06.033Z,11.31
2022-10-30T04:15:35.866Z,11.25
2022-10-30T04:18:05.867Z,11.19
2022-10-30T04:20:36.007Z,11.14
2022-10-30T04:23:07.395Z,11.12
2022-10-30T04:25:36.951Z,11.09
2022-10-30T04:28:05.656Z,11.07
2022-10-30T04:30:35.848Z,11.09
2022-10-30T04:33:08.890Z,11.13
2022-10-30T04:35:38.776Z,11.12
2022-10-30T04:38:15.209Z,11.02
2022-10-30T04:40:47.889Z,10.98
2022-10-30T04:43:17.877Z,10.97
2022-10-30T04:45:51.875Z,10.92
2022-10-30T04:48:22.440Z,10.87
2022-10-30T04:50:51.030Z,10.83
2022-10-30T04:53:24.988Z,10.73
2022-10-30T04:55:59.961Z,10.67
2022-10-30T04:58:29.622Z,10.61
2022-10-30T05:01:07.899Z,10.57
2022-10-30T05:03:39.895Z,10.51
2022-10-30T05:06:21.295Z,10.49
2022-10-30T05:08:49.893Z,10.43
2022-10-30T05:11:28.732Z,10.37
2022-10-30T05:13:59.050Z,10.35
2022-10-30T05:16:27.740Z,10.30
2022-10-30T05:18:59.331Z,10.27
2022-10-30T05:21:28.080Z,10.26
2022-10-30T05:23:56.304Z,10.26
2022-10-30T05:26:25.957Z,10.30
2022-10-30T05:28:55.853Z,10.27
2022-10-30T05:31:24.238Z,10.23
2022-10-30T05:34:23.266Z,10.24
2022-10-30T05:36:54.253Z,10.19
2022-10-30T05:39:23.614Z,10.16
2022-10-30T05:41:53.502Z,10.08
2022-10-30T05:44:40.795Z,10.01
2022-10-30T05:47:13.842Z,10.01
2022-10-30T05:49:48.113Z,10.00
2022-10-30T05:52:20.456Z,9.95
2022-10-30T05:54:51.180Z,9.89
2022-10-30T05:57:33.026Z,9.88
2022-10-30T06:00:03.413Z,9.84
2022-10-30T06:02:33.274Z,9.83
2022-10-30T06:05:03.354Z,9.83
2022-10-30T06:07:33.712Z,9.82
2022-10-30T06:10:03.062Z,9.84
2022-10-30T06:12:54.939Z,9.80
2022-10-30T06:15:43.644Z,9.81
2022-10-30T06:18:12.650Z,9.79
2022-10-30T06:20:44.761Z,9.79
2022-10-30T06:23:17.701Z,9.80
2022-10-30T06:25:53.022Z,9.82
2022-10-30T06:28:32.052Z,9.81
2022-10-30T06:31:00.754Z,9.81
2022-10-30T06:33:29.509Z,9.82
2022-10-30T06:35:59.386Z,9.86
2022-10-30T06:38:27.673Z,9.86
2022-10-30T06:40:56.857Z,9.95
2022-10-30T06:43:46.218Z,9.98
2022-10-30T06:46:22.663Z,9.99
2022-10-30T06:48:52.631Z,10.09
2022-10-30T06:51:24.807Z,10.15
2022-10-30T06:53:55.642Z,10.22
2022-10-30T06:56:42.293Z,10.34
2022-10-30T06:59:29.418Z,10.47
2022-10-30T07:02:12.171Z,10.56
2022-10-30T07:04:46.964Z,10.62
2022-10-30T07:07:17.737Z,10.74
2022-10-30T07:09:47.120Z,10.87
2022-10-30T07:12:17.591Z,10.96
2022-10-30T07:15:12.945Z,11.12
2022-10-30T07:18:15.504Z,11.37
2022-10-30T07:20:44.423Z,11.56
2022-10-30T07:23:14.080Z,11.77
2022-10-30T07:25:42.357Z,11.93
2022-10-30T07:28:19.988Z,12.14
2022-10-30T07:31:29.008Z,12.33
2022-10-30T07:34:12.617Z,12.48
2022-10-30T07:36:57.794Z,12.55
2022-10-30T07:39:32.407Z,12.55
2022-10-30T07:42:15.583Z,12.55
2022-10-30T07:45:02.775Z,12.56
2022-10-30T07:47:49.433Z,12.56
2022-10-30T07:50:28.891Z,12.63
2022-10-30T07:52:57.619Z,12.68
2022-10-30T07:55:30.373Z,12.74
2022-10-30T07:58:16.963Z,12.86
2022-10-30T08:00:45.612Z,13.00
2022-10-30T08:03:23.420Z,13.17
2022-10-30T08:05:57.193Z,13.26
2022-10-30T08:08:35.104Z,13.37
2022-10-30T08:11:21.970Z,13.52
2022-10-30T08:13:52.417Z,13.63
2022-10-30T08:16:24.140Z,13.75
2022-10-30T08:18:52.522Z,13.85
2022-10-30T08:21:25.259Z,13.96
2022-10-30T08:24:01.824Z,14.04
2022-10-30T08:26:35.337Z,14.12
2022-10-30T08:29:04.787Z,14.26
2022-10-30T08:31:53.658Z,14.38
2022-10-30T08:34:26.604Z,14.55
2022-10-30T08:36:57.951Z,14.63
2022-10-30T08:39:26.664Z,14.73
2022-10-30T08:42:08.846Z,14.81
2022-10-30T08:44:43.190Z,14.92
2022-10-30T08:47:35.371Z,15.08
2022-10-30T08:50:03.950Z,15.22
2022-10-30T08:52:33.890Z,15.29
2022-10-30T08:55:05.082Z,15.47
2022-10-30T08:57:39.720Z,15.68
2022-10-30T09:00:11.486Z,15.79
2022-10-30T09:03:09.324Z,15.82
2022-10-30T09:05:46.558Z,15.83
2022-10-30T09:08:30.341Z,15.91
2022-10-30T09:11:25.010Z,15.99
2022-10-30T09:13:56.284Z,16.16
2022-10-30T09:16:25.165Z,16.24
2022-10-30T09:19:00.776Z,16.27
2022-10-30T09:21:29.647Z,16.33
2022-10-30T09:24:00.054Z,16.29
2022-10-30T09:26:37.607Z,16.32
2022-10-30T09:29:14.658Z,16.33
2022-10-30T09:31:58.017Z,16.40
2022-10-30T09:34:29.162Z,16.50
2022-10-30T09:37:08.635Z,16.60
2022-10-30T09:39:42.341Z,16.70
2022-10-30T09:42:25.226Z,16.83
2022-10-30T09:45:33.454Z,17.03
2022-10-30T09:48:20.585Z,17.11
2022-10-30T09:51:18.323Z,17.30
2022-10-30T09:53:58.270Z,17.55
2022-10-30T09:56:37.753Z,17.87
2022-10-30T09:59:16.384Z,17.88
2022-10-30T10:01:50.973Z,18.06
2022-10-30T10:04:40.585Z,18.15
2022-10-30T10:07:22.967Z,18.19
2022-10-30T10:10:02.667Z,18.24
2022-10-30T10:12:45.105Z,18.43
2022-10-30T10:15:20.860Z,18.45
2022-10-30T10:17:50.586Z,18.71
2022-10-30T10:20:28.655Z,18.67
2022-10-30T10:22:58.747Z,18.77
2022-10-30T10:25:28.661Z,18.85
2022-10-30T10:28:09.115Z,18.85
2022-10-30T10:30:47.615Z,18.89
2022-10-30T10:33:34.905Z,18.95
2022-10-30T10:36:15.768Z,18.87
2022-10-30T10:38:58.412Z,18.93
2022-10-30T10:41:37.596Z,19.02
2022-10-30T10:44:22.786Z,19.07
2022-10-30T10:47:07.538Z,19.11
2022-10-30T10:49:49.882Z,19.06
2022-10-30T10:52:24.149Z,19.15
2022-10-30T10:54:59.017Z,19.20
2022-10-30T10:57:30.552Z,19.32
2022-10-30T11:00:04.063Z,19.40
2022-10-30T11:02:39.410Z,19.51
2022-10-30T11:05:22.570Z,19.58
2022-10-30T11:07:51.496Z,19.63
2022-10-30T11:10:22.544Z,19.69
2022-10-30T11:12:52.947Z,19.80
2022-10-30T11:15:34.362Z,19.80
2022-10-30T11:20:44.090Z,19.80
2022-10-30T11:23:35.910Z,19.89
2022-10-30T11:26:04.951Z,19.94
2022-10-30T11:28:40.085Z,20.00
2022-10-30T11:31:21.782Z,20.06
2022-10-30T11:33:50.964Z,20.13
2022-10-30T11:36:25.801Z,20.18
2022-10-30T11:38:59.286Z,20.28
2022-10-30T11:41:27.614Z,20.42
2022-10-30T11:43:57.622Z,20.53
2022-10-30T11:46:26.020Z,20.60
2022-10-30T11:48:55.557Z,20.64
2022-10-30T11:51:38.237Z,20.65
2022-10-30T11:54:08.027Z,20.60
2022-10-30T11:56:37.783Z,20.73
2022-10-30T11:59:07.571Z,20.74
2022-10-30T12:01:39.192Z,20.79
2022-10-30T12:04:23.785Z,20.76
2022-10-30T12:07:08.184Z,20.82
2022-10-30T12:09:44.317Z,20.81
2022-10-30T12:12:14.340Z,20.96
2022-10-30T12:14:42.654Z,20.96
2022-10-30T12:17:16.980Z,20.96
2022-10-30T12:19:51.148Z,20.95
2022-10-30T12:22:31.024Z,21.12
2022-10-30T12:25:03.126Z,21.18
2022-10-30T12:27:36.459Z,21.13
2022-10-30T12:30:10.514Z,21.13
2022-10-30T12:32:46.699Z,21.29
2022-10-30T12:35:35.968Z,21.31
2022-10-30T12:38:12.370Z,21.31
2022-10-30T12:40:46.824Z,21.32
2022-10-30T12:43:20.879Z,21.30
2022-10-30T12:45:53.979Z,21.38
2022-10-30T12:48:29.082Z,21.50
2022-10-30T12:51:15.910Z,21.40
2022-10-30T12:53:58.511Z,21.39
2022-10-30T12:56:32.834Z,21.37
2022-10-30T12:59:18.108Z,21.32
2022-10-30T13:01:53.051Z,21.35
2022-10-30T13:04:26.739Z,21.28
2022-10-30T13:07:05.834Z,21.27
2022-10-30T13:09:41.483Z,21.34
2022-10-30T13:12:14.335Z,21.18
2022-10-30T13:14:47.321Z,21.20
2022-10-30T13:17:16.374Z,21.14
2022-10-30T13:19:47.873Z,20.95
2022-10-30T13:22:21.687Z,20.92
2022-10-30T13:25:04.014Z,20.83
2022-10-30T13:27:42.305Z,20.82
2022-10-30T13:30:16.516Z,20.85
2022-10-30T13:33:02.651Z,20.89
2022-10-30T13:35:36.937Z,20.77
2022-10-30T13:38:19.938Z,20.74
2022-10-30T13:40:54.631Z,20.73
2022-10-30T13:43:30.533Z,20.72
2022-10-30T13:46:11.426Z,20.69
2022-10-30T13:48:51.450Z,20.74
2022-10-30T13:51:33.760Z,20.74
2022-10-30T13:54:11.382Z,20.82
2022-10-30T13:56:43.082Z,20.91
2022-10-30T13:59:26.076Z,20.87
2022-10-30T14:02:05.679Z,20.87
2022-10-30T14:04:42.353Z,20.93
2022-10-30T14:07:24.092Z,21.00
2022-10-30T14:10:03.996Z,20.97
2022-10-30T14:12:50.751Z,20.87
2022-10-30T14:15:28.100Z,20.90
2022-10-30T14:18:25.764Z,20.91
2022-10-30T14:20:54.951Z,20.93
2022-10-30T14:23:26.228Z,20.82
2022-10-30T14:26:22.059Z,20.83
2022-10-30T14:28:56.350Z,20.80
2022-10-30T14:31:35.974Z,20.75
2022-10-30T14:34:04.446Z,20.67
2022-10-30T14:36:51.877Z,20.55
2022-10-30T14:39:29.581Z,20.55
2022-10-30T14:42:08.418Z,20.48
2022-10-30T14:44:51.859Z,20.46
2022-10-30T14:47:49.198Z,20.30
2022-10-30T14:50:31.517Z,20.14
2022-10-30T14:53:29.449Z,20.08
2022-10-30T14:56:05.658Z,20.02
2022-10-30T14:58:35.486Z,19.94
2022-10-30T15:03:59.644Z,19.86
2022-10-30T15:06:35.318Z,19.79
2022-10-30T15:09:28.912Z,19.70
2022-10-30T15:12:30.872Z,19.54
2022-10-30T15:15:03.815Z,19.43
2022-10-30T15:17:35.236Z,19.33
2022-10-30T15:20:09.686Z,19.33
2022-10-30T15:22:38.103Z,19.24
2022-10-30T15:25:16.287Z,19.17
2022-10-30T15:27:53.353Z,19.08
2022-10-30T15:30:27.277Z,19.01
2022-10-30T15:32:55.983Z,18.90
2022-10-30T15:35:27.071Z,18.79
2022-10-30T15:38:00.250Z,18.74
2022-10-30T15:40:29.493Z,18.60
2022-10-30T15:43:01.251Z,18.55
2022-10-30T15:45:34.473Z,18.41
2022-10-30T15:48:07.846Z,18.40
2022-10-30T15:50:42.140Z,18.24
2022-10-30T15:53:19.707Z,18.06
2022-10-30T15:55:49.482Z,17.90
2022-10-30T15:58:23.212Z,17.71
2022-10-30T16:00:59.071Z,17.56
2022-10-30T16:03:28.183Z,17.46
2022-10-30T16:06:18.273Z,17.31
2022-10-30T16:08:48.750Z,17.14
2022-10-30T16:11:17.907Z,16.91
2022-10-30T16:13:46.555Z,16.71
2022-10-30T16:16:31.131Z,16.49
2022-10-30T16:19:02.182Z,16.28
2022-10-30T16:21:32.734Z,16.09
2022-10-30T16:24:05.324Z,15.93
2022-10-30T16:26:35.371Z,15.76
2022-10-30T16:29:18.231Z,15.65
2022-10-30T16:31:50.050Z,15.52
2022-10-30T16:34:24.515Z,15.42
2022-10-30T16:36:54.896Z,15.38
2022-10-30T16:39:23.568Z,15.31
2022-10-30T16:41:52.732Z,15.26
2022-10-30T16:44:28.472Z,15.20
2022-10-30T16:46:58.716Z,15.10
2022-10-30T16:49:30.107Z,15.06
2022-10-30T16:52:03.150Z,14.93
2022-10-30T16:54:36.932Z,14.90
2022-10-30T16:57:12.260Z,14.84
2022-10-30T16:59:48.076Z,14.79
2022-10-30T17:02:20.496Z,14.68
2022-10-30T17:04:55.342Z,14.58
2022-10-30T17:07:27.915Z,14.51
2022-10-30T17:09:58.681Z,14.46
2022-10-30T17:12:29.228Z,14.41
2022-10-30T17:15:12.650Z,14.35
2022-10-30T17:17:42.755Z,14.23
2022-10-30T17:20:14.841Z,14.10
2022-10-30T17:22:45.301Z,14.05
2022-10-30T17:25:19.077Z,13.97
2022-10-30T17:27:52.688Z,13.90
2022-10-30T17:30:34.837Z,13.86
2022-10-30T17:33:05.046Z,13.85
2022-10-30T17:35:35.128Z,13.80
2022-10-30T17:38:05.303Z,13.71
2022-10-30T17:40:33.954Z,13.66
2022-10-30T17:43:02.274Z,13.63
2022-10-30T17:45:30.384Z,13.59
2022-10-30T17:47:59.147Z,13.59
2022-10-30T17:50:27.607Z,13.55
2022-10-30T17:52:56.778Z,13.52
2022-10-30T17:55:31.243Z,13.50
2022-10-30T17:57:59.833Z,13.46
2022-10-30T18:00:28.889Z,13.41
2022-10-30T18:02:57.790Z,13.51
2022-10-30T18:05:30.185Z,13.58
2022-10-30T18:07:58.646Z,13.57
2022-10-30T18:10:34.133Z,13.79
2022-10-30T18:13:02.744Z,13.87
2022-10-30T18:15:34.507Z,13.79
2022-10-30T18:18:08.981Z,13.73
2022-10-30T18:20:46.290Z,13.61
2022-10-30T18:23:50.409Z,13.50
2022-10-30T18:26:14.896Z,13.40
2022-10-30T18:28:44.105Z,13.61
2022-10-30T18:31:13.738Z,13.64
2022-10-30T18:33:42.661Z,13.69
2022-10-30T18:36:13.241Z,13.56
2022-10-30T18:38:41.613Z,13.41
2022-10-30T18:41:24.008Z,13.28
2022-10-30T18:43:55.411Z,13.17
2022-10-30T18:46:24.730Z,13.09
2022-10-30T18:48:53.630Z,13.05
2022-10-30T18:51:24.843Z,13.00
2022-10-30T18:53:54.273Z,12.93
2022-10-30T18:56:25.378Z,12.80
2022-10-30T18:58:58.526Z,12.69
2022-10-30T19:01:32.055Z,12.63
2022-10-30T19:04:03.696Z,12.65
2022-10-30T19:06:34.100Z,12.61
2022-10-30T19:09:14.351Z,12.56
2022-10-30T19:11:44.635Z,12.57
2022-10-30T19:14:16.674Z,12.56
2022-10-30T19:16:45.193Z,12.55
2022-10-30T19:19:15.154Z,12.54
2022-10-30T19:21:43.496Z,12.51
2022-10-30T19:24:16.463Z,12.43
2022-10-30T19:26:46.191Z,12.34
2022-10-30T19:29:14.608Z,12.26
2022-10-30T19:31:43.617Z,12.22
2022-10-30T19:34:12.570Z,12.18
2022-10-30T19:36:41.123Z,12.11
2022-10-30T19:39:13.496Z,12.09
2022-10-30T19:41:44.747Z,12.26
2022-10-30T19:44:14.779Z,12.19
2022-10-30T19:46:43.125Z,12.13
2022-10-30T19:49:18.492Z,12.14
2022-10-30T19:51:47.520Z,12.18
2022-10-30T19:54:16.805Z,12.13
2022-10-30T19:56:45.517Z,12.10
2022-10-30T19:59:16.494Z,12.07
2022-10-30T20:01:45.162Z,12.04
2022-10-30T20:04:13.785Z,12.05
2022-10-30T20:06:42.412Z,12.11
2022-10-30T20:09:11.745Z,12.06
2022-10-30T20:11:40.095Z,12.04
2022-10-30T20:14:08.483Z,12.09
2022-10-30T20:16:38.623Z,12.28
2022-10-30T20:19:29.186Z,12.17
2022-10-30T20:21:58.063Z,12.10
2022-10-30T20:24:26.812Z,12.03
2022-10-30T20:26:58.674Z,12.00
2022-10-30T20:29:28.562Z,11.99
2022-10-30T20:31:58.450Z,11.98
2022-10-30T20:34:26.845Z,11.91
2022-10-30T20:36:55.122Z,11.83
2022-10-30T20:39:23.577Z,11.77
2022-10-30T20:41:53.812Z,11.69
2022-10-30T20:44:22.300Z,11.63
2022-10-30T20:46:50.764Z,11.59
2022-10-30T20:49:21.092Z,11.55
2022-10-30T20:51:49.897Z,11.53
2022-10-30T20:54:18.992Z,11.47
2022-10-30T20:56:47.202Z,11.43
2022-10-30T20:59:16.031Z,11.39
2022-10-30T21:01:44.831Z,11.34
2022-10-30T21:04:13.302Z,11.30
2022-10-30T21:06:43.499Z,11.28
2022-10-30T21:09:11.960Z,11.27
2022-10-30T21:11:40.351Z,11.28
2022-10-30T21:14:08.877Z,11.28
2022-10-30T21:16:37.283Z,11.26
2022-10-30T21:19:05.636Z,11.26
2022-10-30T21:21:35.205Z,11.24
2022-10-30T21:24:04.865Z,11.18
2022-10-30T21:26:37.667Z,11.17
2022-10-30T21:29:06.386Z,11.15
2022-10-30T21:31:34.649Z,11.16
2022-10-30T21:34:02.997Z,11.15
2022-10-30T21:36:31.232Z,11.15
2022-10-30T21:38:59.974Z,11.15
2022-10-30T21:41:29.846Z,11.11
2022-10-30T21:43:58.986Z,11.09
2022-10-30T21:46:29.824Z,11.12
2022-10-30T21:49:04.514Z,11.12
2022-10-30T21:51:33.876Z,11.08
2022-10-30T21:54:02.380Z,11.05
2022-10-30T21:56:32.627Z,11.07
2022-10-30T21:59:04.647Z,11.01
2022-10-30T22:01:35.822Z,11.01
2022-10-30T22:04:06.276Z,11.00
2022-10-30T22:06:37.055Z,10.95
2022-10-30T22:09:06.433Z,10.95
2022-10-30T22:11:36.823Z,10.93
2022-10-30T22:14:09.089Z,10.94
2022-10-30T22:16:39.790Z,10.94
2022-10-30T22:19:09.602Z,10.94
2022-10-30T22:21:39.876Z,10.91
2022-10-30T22:24:10.629Z,10.89
2022-10-30T22:26:40.309Z,10.90
2022-10-30T22:29:08.399Z,10.89
2022-10-30T22:31:37.131Z,10.87
2022-10-30T22:34:05.376Z,10.90
2022-10-30T22:36:34.560Z,10.84
2022-10-30T22:39:06.379Z,11.07
2022-10-30T22:41:38.065Z,11.22
2022-10-30T22:44:11.934Z,11.36
2022-10-30T22:46:40.215Z,11.36
2022-10-30T22:49:08.559Z,11.35
2022-10-30T22:51:38.472Z,11.38
2022-10-30T22:54:09.040Z,11.42
2022-10-30T22:56:38.135Z,11.47
2022-10-30T22:59:09.646Z,11.45
2022-10-30T23:01:41.225Z,11.49
2022-10-30T23:04:12.132Z,11.50
2022-10-30T23:06:41.788Z,11.42
2022-10-30T23:09:10.987Z,11.34
2022-10-30T23:11:39.197Z,11.46
2022-10-30T23:14:08.865Z,11.40
2022-10-30T23:16:37.351Z,11.34
2022-10-30T23:19:05.838Z,11.40
2022-10-30T23:21:34.677Z,11.44
2022-10-30T23:24:05.460Z,11.34
2022-10-30T23:26:37.027Z,11.23
2022-10-30T23:29:05.764Z,11.15
2022-10-30T23:31:40.426Z,11.11
2022-10-30T23:34:11.614Z,11.06
2022-10-30T23:36:40.492Z,11.05
2022-10-30T23:39:12.536Z,10.98
2022-10-30T23:41:41.223Z,10.89
2022-10-30T23:44:13.005Z,10.75
2022-10-30T23:46:43.175Z,10.62
2022-10-30T23:49:11.795Z,10.53
2022-10-30T23:51:40.742Z,10.47
2022-10-30T23:54:09.996Z,10.45
2022-10-30T23:56:38.222Z,10.39
2022-10-30T23:59:06.776Z,10.45
